Prichard, West Virginia
Current Conditions -  °F | °C
As of 11:51 PM on Friday 24 Oct 2014 (Local Time) from KHTS Reporting Station
Clear Clear  
Wind Chill: 43°   Ceiling: Unl
Heat Index: 45°   Visibility: 10mi
Dew Point: 42°   Wind: 5mph
Humidity: 90%   Direction: 210°SSW
Pressure: 30.05"   Gusts: NA
Location:  38.24°N, 82.6°W
Report Text: KHTS 250351Z 21004KT 10SM CLR 07/06 A3005 RMK AO2 SLP176 T00720056
Loading
Personal Weather Stations






























Interactive Weather Map
Tropical Storm Tracking
New forecast layout! Learn more

10-Day Weather Forecast

Advertisements
Track Severe Weather on mobile